createdAt,value
2022-09-03T00:02:45.857Z,25.57
2022-09-03T00:08:27.855Z,25.75
2022-09-03T00:13:38.645Z,25.87
2022-09-03T00:18:57.431Z,25.96
2022-09-03T00:24:07.293Z,25.95
2022-09-03T00:29:21.145Z,25.93
2022-09-03T00:34:44.180Z,25.92
2022-09-03T00:39:57.429Z,25.86
2022-09-03T00:45:52.571Z,25.78
2022-09-03T00:51:39.186Z,25.76
2022-09-03T00:57:48.449Z,25.75
2022-09-03T01:05:58.514Z,25.65
2022-09-03T01:11:38.815Z,25.69
2022-09-03T01:22:25.420Z,25.73
2022-09-03T01:27:46.891Z,25.73
2022-09-03T01:33:11.156Z,25.77
2022-09-03T01:38:31.818Z,25.80
2022-09-03T01:44:05.271Z,25.79
2022-09-03T01:49:31.342Z,25.77
2022-09-03T01:55:16.697Z,25.73
2022-09-03T02:00:32.423Z,25.71
2022-09-03T02:06:05.247Z,25.70
2022-09-03T02:11:11.817Z,25.71
2022-09-03T02:16:21.014Z,25.71
2022-09-03T02:21:39.423Z,25.69
2022-09-03T02:26:44.784Z,25.67
2022-09-03T02:31:52.060Z,25.67
2022-09-03T02:36:57.871Z,25.63
2022-09-03T02:42:02.417Z,25.60
2022-09-03T02:47:07.456Z,25.53
2022-09-03T02:52:12.386Z,25.38
2022-09-03T02:57:23.839Z,25.21
2022-09-03T03:07:42.992Z,25.03
2022-09-03T03:12:56.760Z,24.97
2022-09-03T03:18:10.648Z,24.89
2022-09-03T03:23:16.443Z,24.81
2022-09-03T03:28:31.374Z,24.72
2022-09-03T03:33:45.628Z,24.61
2022-09-03T03:39:11.270Z,24.57
2022-09-03T03:44:22.982Z,24.54
2022-09-03T03:49:30.789Z,24.51
2022-09-03T03:54:41.455Z,24.51
2022-09-03T04:05:23.223Z,24.55
2022-09-03T04:10:30.776Z,24.63
2022-09-03T04:15:43.918Z,24.66
2022-09-03T04:20:59.306Z,24.63
2022-09-03T04:26:07.489Z,24.57
2022-09-03T04:31:18.494Z,24.53
2022-09-03T04:36:29.267Z,24.51
2022-09-03T04:41:35.631Z,24.50
2022-09-03T04:46:44.475Z,24.50
2022-09-03T04:52:02.061Z,24.47
2022-09-03T05:02:22.547Z,24.48
2022-09-03T05:07:54.490Z,24.47
2022-09-03T05:13:04.470Z,24.45
2022-09-03T05:18:11.651Z,24.41
2022-09-03T05:23:24.697Z,24.41
2022-09-03T05:28:39.222Z,24.41
2022-09-03T05:39:15.283Z,24.48
2022-09-03T05:44:29.898Z,24.53
2022-09-03T05:49:35.680Z,24.61
2022-09-03T05:54:48.656Z,24.68
2022-09-03T05:59:59.122Z,24.85
2022-09-03T06:05:04.495Z,25.03
2022-09-03T06:10:16.520Z,25.20
2022-09-03T06:15:33.905Z,25.37
2022-09-03T06:20:44.942Z,25.56
2022-09-03T06:26:25.139Z,25.68
2022-09-03T06:31:29.940Z,25.77
2022-09-03T06:36:38.863Z,25.85
2022-09-03T06:41:57.659Z,25.92
2022-09-03T06:47:18.663Z,25.94
2022-09-03T06:52:27.225Z,25.95
2022-09-03T06:57:36.604Z,25.94
2022-09-03T07:02:45.042Z,25.98
2022-09-03T07:13:13.294Z,25.97
2022-09-03T07:18:22.962Z,25.95
2022-09-03T07:23:31.497Z,25.99
2022-09-03T07:28:40.629Z,26.05
2022-09-03T07:33:51.897Z,26.08
2022-09-03T07:39:02.664Z,26.10
2022-09-03T07:44:15.669Z,26.12
2022-09-03T07:49:23.461Z,26.16
2022-09-03T07:54:32.937Z,26.22
2022-09-03T07:59:46.252Z,26.26
2022-09-03T08:10:16.544Z,26.56
2022-09-03T08:15:23.283Z,26.88
2022-09-03T08:20:29.838Z,27.06
2022-09-03T08:25:40.668Z,27.37
2022-09-03T08:30:45.166Z,27.47
2022-09-03T08:35:58.322Z,27.88
2022-09-03T08:41:51.144Z,28.40
2022-09-03T08:47:40.094Z,28.78
2022-09-03T08:53:14.579Z,28.74
2022-09-03T08:58:26.955Z,28.91
2022-09-03T09:04:15.607Z,29.00
2022-09-03T09:09:50.073Z,29.08
2022-09-03T09:15:09.406Z,29.12
2022-09-03T09:20:41.881Z,28.90
2022-09-03T09:25:54.370Z,28.81
2022-09-03T09:31:22.885Z,28.75
2022-09-03T09:36:26.932Z,28.84
2022-09-03T09:41:31.773Z,28.80
2022-09-03T09:46:50.193Z,29.13
2022-09-03T09:52:21.881Z,29.18
2022-09-03T09:57:26.951Z,29.05
2022-09-03T10:02:45.894Z,28.96
2022-09-03T10:08:26.774Z,28.92
2022-09-03T10:13:46.886Z,29.10
2022-09-03T10:19:23.727Z,29.21
2022-09-03T10:25:09.366Z,29.17
2022-09-03T10:30:19.242Z,29.33
2022-09-03T10:36:22.558Z,29.48
2022-09-03T10:42:05.522Z,29.56
2022-09-03T10:47:38.832Z,29.63
2022-09-03T10:53:08.558Z,29.76
2022-09-03T11:00:26.706Z,29.83
2022-09-03T11:06:00.541Z,29.93
2022-09-03T11:11:21.149Z,29.96
2022-09-03T11:16:58.085Z,29.92
2022-09-03T11:33:31.099Z,29.74
2022-09-03T11:38:42.910Z,29.78
2022-09-03T11:43:48.724Z,29.85
2022-09-03T11:49:13.144Z,30.01
2022-09-03T11:54:36.744Z,30.12
2022-09-03T11:59:48.454Z,30.09
2022-09-03T12:05:27.065Z,30.11
2022-09-03T12:11:21.377Z,30.03
2022-09-03T12:52:39.186Z,29.97
2022-09-03T12:57:48.213Z,29.96
2022-09-03T13:03:08.472Z,29.94
2022-09-03T13:08:18.958Z,29.90
2022-09-03T13:13:39.512Z,29.88
2022-09-03T13:19:02.274Z,29.78
2022-09-03T13:24:07.337Z,29.75
2022-09-03T13:29:37.090Z,29.70
2022-09-03T13:34:48.920Z,29.63
2022-09-03T13:40:00.932Z,29.57
2022-09-03T13:45:12.121Z,29.46
2022-09-03T13:50:26.847Z,29.32
2022-09-03T13:55:31.574Z,29.20
2022-09-03T14:00:47.925Z,29.20
2022-09-03T14:06:15.658Z,29.30
2022-09-03T14:11:55.845Z,29.25
2022-09-03T14:17:13.805Z,29.16
2022-09-03T14:22:29.331Z,29.18
2022-09-03T14:27:34.927Z,29.27
2022-09-03T14:33:18.063Z,29.27
2022-09-03T14:38:35.101Z,29.30
2022-09-03T14:43:55.438Z,29.17
2022-09-03T14:49:35.671Z,28.98
2022-09-03T14:54:59.485Z,28.85
2022-09-03T15:01:06.653Z,28.64
2022-09-03T15:06:30.674Z,28.45
2022-09-03T15:11:47.669Z,28.30
2022-09-03T15:17:05.767Z,28.18
2022-09-03T15:22:37.925Z,28.12
2022-09-03T15:27:57.887Z,28.11
2022-09-03T15:33:18.955Z,28.02
2022-09-03T15:38:55.228Z,27.99
2022-09-03T15:44:01.685Z,27.92
2022-09-03T15:49:13.124Z,27.88
2022-09-03T15:54:25.357Z,27.85
2022-09-03T15:59:47.269Z,27.81
2022-09-03T16:05:06.227Z,27.78
2022-09-03T16:10:51.148Z,27.75
2022-09-03T16:16:26.633Z,27.72
2022-09-03T16:21:49.011Z,27.70
2022-09-03T16:27:03.660Z,27.68
2022-09-03T16:32:22.941Z,27.60
2022-09-03T16:37:31.286Z,27.53
2022-09-03T16:43:39.565Z,27.54
2022-09-03T16:48:46.447Z,27.57
2022-09-03T16:54:20.262Z,27.55
2022-09-03T16:59:41.233Z,27.51
2022-09-03T17:05:20.152Z,27.51
2022-09-03T17:10:53.977Z,27.46
2022-09-03T17:16:27.596Z,27.40
2022-09-03T17:22:02.397Z,27.35
2022-09-03T17:27:16.821Z,27.28
2022-09-03T17:32:47.526Z,27.29
2022-09-03T17:38:02.149Z,27.26
2022-09-03T17:43:23.947Z,27.24
2022-09-03T17:48:51.387Z,27.22
2022-09-03T17:54:12.141Z,27.24
2022-09-03T17:59:17.025Z,27.28
2022-09-03T18:04:58.236Z,27.34
2022-09-03T18:10:22.293Z,27.38
2022-09-03T18:16:11.490Z,27.35
2022-09-03T18:21:52.282Z,27.36
2022-09-03T18:27:25.634Z,27.36
2022-09-03T18:32:48.352Z,27.35
2022-09-03T18:38:09.165Z,27.32
2022-09-03T18:43:39.427Z,27.29
2022-09-03T18:49:08.884Z,27.26
2022-09-03T18:55:06.380Z,27.28
2022-09-03T19:00:29.631Z,27.28
2022-09-03T19:06:01.998Z,27.23
2022-09-03T19:11:55.016Z,27.18
2022-09-03T19:17:51.269Z,27.23
2022-09-03T19:23:14.993Z,27.21
2022-09-03T19:28:41.141Z,27.21
2022-09-03T19:34:16.832Z,27.19
2022-09-03T19:40:04.698Z,27.17
2022-09-03T19:45:48.433Z,27.22
2022-09-03T19:51:21.978Z,27.21
2022-09-03T19:56:48.552Z,27.16
2022-09-03T20:02:10.920Z,27.15
2022-09-03T20:07:31.331Z,27.14
2022-09-03T20:12:37.921Z,27.12
2022-09-03T20:17:51.736Z,27.11
2022-09-03T20:23:12.617Z,27.12
2022-09-03T20:28:22.297Z,27.10
2022-09-03T20:34:05.318Z,27.09
2022-09-03T20:39:21.191Z,27.05
2022-09-03T20:44:41.551Z,27.03
2022-09-03T20:49:49.477Z,26.99
2022-09-03T20:55:04.400Z,26.99
2022-09-03T21:00:14.059Z,26.96
2022-09-03T21:05:43.115Z,26.92
2022-09-03T21:11:11.341Z,26.91
2022-09-03T21:16:35.306Z,26.90
2022-09-03T21:21:50.318Z,26.88
2022-09-03T21:26:59.006Z,26.88
2022-09-03T21:32:41.135Z,26.90
2022-09-03T21:38:05.167Z,26.91
2022-09-03T21:43:19.421Z,26.87
2022-09-03T21:48:26.473Z,26.86
2022-09-03T21:53:51.076Z,26.81
2022-09-03T21:59:11.387Z,26.79
2022-09-03T22:04:15.378Z,26.81
2022-09-03T22:09:26.842Z,26.81
2022-09-03T22:14:43.507Z,26.79
2022-09-03T22:19:48.582Z,26.76
2022-09-03T22:25:05.288Z,26.73
2022-09-03T22:30:19.858Z,26.70
2022-09-03T22:35:44.894Z,26.66
2022-09-03T22:40:52.513Z,26.63
2022-09-03T22:46:09.821Z,26.62
2022-09-03T22:51:13.487Z,26.60
2022-09-03T22:56:22.459Z,26.57
2022-09-03T23:01:43.517Z,26.51
2022-09-03T23:06:56.844Z,26.42
2022-09-03T23:12:04.366Z,26.38
2022-09-03T23:22:41.874Z,26.29
2022-09-03T23:27:58.681Z,26.25
2022-09-03T23:33:01.399Z,26.21
2022-09-03T23:38:22.249Z,26.17
2022-09-03T23:43:50.407Z,26.14
2022-09-03T23:49:08.939Z,26.10
2022-09-03T23:54:33.839Z,26.07
2022-09-03T23:59:53.932Z,26.06
